sensor_id;sensor_type;location;lat;lon;timestamp;temperature;humidity
19435;DHT22;9853;50.848;4.108;2022-08-05T00:01:53;21.10;99.90
19435;DHT22;9853;50.848;4.108;2022-08-05T00:03:54;20.80;99.90
19435;DHT22;9853;50.848;4.108;2022-08-05T00:05:56;20.80;99.90
19435;DHT22;9853;50.848;4.108;2022-08-05T00:07:56;20.90;99.90
19435;DHT22;9853;50.848;4.108;2022-08-05T00:09:58;20.90;99.90
19435;DHT22;9853;50.848;4.108;2022-08-05T00:11:59;21.10;99.90
19435;DHT22;9853;50.848;4.108;2022-08-05T00:14:00;21.10;99.90
19435;DHT22;9853;50.848;4.108;2022-08-05T00:16:02;21.20;99.90
19435;DHT22;9853;50.848;4.108;2022-08-05T00:18:02;21.30;99.90
19435;DHT22;9853;50.848;4.108;2022-08-05T00:20:06;21.40;99.90
19435;DHT22;9853;50.848;4.108;2022-08-05T00:22:07;21.40;99.90
19435;DHT22;9853;50.848;4.108;2022-08-05T00:24:08;21.50;99.90
19435;DHT22;9853;50.848;4.108;2022-08-05T00:26:09;21.40;99.90
19435;DHT22;9853;50.848;4.108;2022-08-05T00:28:14;21.50;99.90
19435;DHT22;9853;50.848;4.108;2022-08-05T00:30:15;21.60;99.90
19435;DHT22;9853;50.848;4.108;2022-08-05T00:32:16;21.60;99.90
19435;DHT22;9853;50.848;4.108;2022-08-05T00:34:16;21.70;99.90
19435;DHT22;9853;50.848;4.108;2022-08-05T00:36:17;21.70;99.90
19435;DHT22;9853;50.848;4.108;2022-08-05T00:38:18;21.70;99.90
19435;DHT22;9853;50.848;4.108;2022-08-05T00:40:21;21.60;99.90
19435;DHT22;9853;50.848;4.108;2022-08-05T00:44:31;21.50;99.90
19435;DHT22;9853;50.848;4.108;2022-08-05T00:46:32;21.70;99.90
19435;DHT22;9853;50.848;4.108;2022-08-05T00:48:32;21.60;99.90
19435;DHT22;9853;50.848;4.108;2022-08-05T00:50:33;22.10;99.90
19435;DHT22;9853;50.848;4.108;2022-08-05T00:52:34;22.60;99.90
19435;DHT22;9853;50.848;4.108;2022-08-05T00:54:35;22.70;99.90
19435;DHT22;9853;50.848;4.108;2022-08-05T00:56:35;22.50;99.90
19435;DHT22;9853;50.848;4.108;2022-08-05T00:58:36;22.20;99.90
19435;DHT22;9853;50.848;4.108;2022-08-05T01:00:38;21.80;99.90
19435;DHT22;9853;50.848;4.108;2022-08-05T01:02:38;21.40;99.90
19435;DHT22;9853;50.848;4.108;2022-08-05T01:04:39;20.90;99.90
19435;DHT22;9853;50.848;4.108;2022-08-05T01:06:40;20.70;99.90
19435;DHT22;9853;50.848;4.108;2022-08-05T01:08:41;20.60;99.90
19435;DHT22;9853;50.848;4.108;2022-08-05T01:10:53;20.50;99.90
19435;DHT22;9853;50.848;4.108;2022-08-05T01:12:57;20.40;99.90
19435;DHT22;9853;50.848;4.108;2022-08-05T01:15:07;20.30;99.90
19435;DHT22;9853;50.848;4.108;2022-08-05T01:17:17;20.30;99.90
19435;DHT22;9853;50.848;4.108;2022-08-05T01:23:59;20.40;99.90
19435;DHT22;9853;50.848;4.108;2022-08-05T01:26:17;20.50;99.90
19435;DHT22;9853;50.848;4.108;2022-08-05T01:31:03;20.80;99.90
19435;DHT22;9853;50.848;4.108;2022-08-05T01:33:08;21.00;99.90
19435;DHT22;9853;50.848;4.108;2022-08-05T01:35:14;21.00;99.90
19435;DHT22;9853;50.848;4.108;2022-08-05T01:37:18;20.90;99.90
19435;DHT22;9853;50.848;4.108;2022-08-05T01:39:22;20.80;99.90
19435;DHT22;9853;50.848;4.108;2022-08-05T01:41:24;20.70;99.90
19435;DHT22;9853;50.848;4.108;2022-08-05T01:43:27;20.90;99.90
19435;DHT22;9853;50.848;4.108;2022-08-05T01:45:31;21.10;99.90
19435;DHT22;9853;50.848;4.108;2022-08-05T01:47:34;21.20;99.90
19435;DHT22;9853;50.848;4.108;2022-08-05T01:49:35;21.20;99.90
19435;DHT22;9853;50.848;4.108;2022-08-05T01:51:40;21.30;99.90
19435;DHT22;9853;50.848;4.108;2022-08-05T01:53:43;21.50;99.90
19435;DHT22;9853;50.848;4.108;2022-08-05T01:55:46;21.50;99.90
19435;DHT22;9853;50.848;4.108;2022-08-05T01:57:49;21.20;99.90
19435;DHT22;9853;50.848;4.108;2022-08-05T01:59:51;20.90;99.90
19435;DHT22;9853;50.848;4.108;2022-08-05T02:01:55;20.70;99.90
19435;DHT22;9853;50.848;4.108;2022-08-05T02:03:59;20.50;99.90
19435;DHT22;9853;50.848;4.108;2022-08-05T02:06:03;20.50;99.90
19435;DHT22;9853;50.848;4.108;2022-08-05T02:08:07;20.60;99.90
19435;DHT22;9853;50.848;4.108;2022-08-05T02:10:09;20.70;99.90
19435;DHT22;9853;50.848;4.108;2022-08-05T02:14:13;20.80;99.90
19435;DHT22;9853;50.848;4.108;2022-08-05T02:16:27;20.90;99.90
19435;DHT22;9853;50.848;4.108;2022-08-05T02:18:32;21.00;99.90
19435;DHT22;9853;50.848;4.108;2022-08-05T02:20:58;21.00;99.90
19435;DHT22;9853;50.848;4.108;2022-08-05T02:23:06;21.00;99.90
19435;DHT22;9853;50.848;4.108;2022-08-05T02:25:15;21.00;99.90
19435;DHT22;9853;50.848;4.108;2022-08-05T02:27:17;20.90;99.90
19435;DHT22;9853;50.848;4.108;2022-08-05T02:29:21;20.90;99.90
19435;DHT22;9853;50.848;4.108;2022-08-05T02:31:26;20.70;99.90
19435;DHT22;9853;50.848;4.108;2022-08-05T02:33:28;20.80;99.90
19435;DHT22;9853;50.848;4.108;2022-08-05T02:35:31;20.80;99.90
19435;DHT22;9853;50.848;4.108;2022-08-05T02:37:34;20.90;99.90
19435;DHT22;9853;50.848;4.108;2022-08-05T02:39:37;20.90;99.90
19435;DHT22;9853;50.848;4.108;2022-08-05T02:41:40;20.80;99.90
19435;DHT22;9853;50.848;4.108;2022-08-05T02:43:44;20.80;99.90
19435;DHT22;9853;50.848;4.108;2022-08-05T02:45:46;20.50;99.90
19435;DHT22;9853;50.848;4.108;2022-08-05T02:47:50;20.60;99.90
19435;DHT22;9853;50.848;4.108;2022-08-05T02:49:52;20.80;99.90
19435;DHT22;9853;50.848;4.108;2022-08-05T02:51:53;21.10;99.90
19435;DHT22;9853;50.848;4.108;2022-08-05T02:53:55;21.10;99.90
19435;DHT22;9853;50.848;4.108;2022-08-05T02:55:57;21.00;99.90
19435;DHT22;9853;50.848;4.108;2022-08-05T02:57:59;21.30;99.90
19435;DHT22;9853;50.848;4.108;2022-08-05T03:00:00;21.30;99.90
19435;DHT22;9853;50.848;4.108;2022-08-05T03:02:01;21.00;99.90
19435;DHT22;9853;50.848;4.108;2022-08-05T03:04:05;21.00;99.90
19435;DHT22;9853;50.848;4.108;2022-08-05T03:06:11;21.00;99.90
19435;DHT22;9853;50.848;4.108;2022-08-05T03:08:12;20.70;99.90
19435;DHT22;9853;50.848;4.108;2022-08-05T03:10:15;20.60;99.90
19435;DHT22;9853;50.848;4.108;2022-08-05T03:12:32;20.50;99.90
19435;DHT22;9853;50.848;4.108;2022-08-05T03:14:34;20.50;99.90
19435;DHT22;9853;50.848;4.108;2022-08-05T03:16:35;20.40;99.90
19435;DHT22;9853;50.848;4.108;2022-08-05T03:18:35;20.00;99.90
19435;DHT22;9853;50.848;4.108;2022-08-05T03:20:36;20.40;99.90
19435;DHT22;9853;50.848;4.108;2022-08-05T03:22:37;20.50;99.90
19435;DHT22;9853;50.848;4.108;2022-08-05T03:24:38;20.70;99.90
19435;DHT22;9853;50.848;4.108;2022-08-05T03:26:38;20.50;99.90
19435;DHT22;9853;50.848;4.108;2022-08-05T03:28:39;20.50;99.90
19435;DHT22;9853;50.848;4.108;2022-08-05T03:30:40;20.60;99.90
19435;DHT22;9853;50.848;4.108;2022-08-05T03:32:42;20.70;99.90
19435;DHT22;9853;50.848;4.108;2022-08-05T03:34:43;21.00;99.90
19435;DHT22;9853;50.848;4.108;2022-08-05T03:36:44;20.70;99.90
19435;DHT22;9853;50.848;4.108;2022-08-05T03:38:45;20.50;99.90
19435;DHT22;9853;50.848;4.108;2022-08-05T03:40:46;20.30;99.90
19435;DHT22;9853;50.848;4.108;2022-08-05T03:42:46;20.30;99.90
19435;DHT22;9853;50.848;4.108;2022-08-05T03:44:47;20.40;99.90
19435;DHT22;9853;50.848;4.108;2022-08-05T03:46:48;20.60;99.90
19435;DHT22;9853;50.848;4.108;2022-08-05T03:48:48;20.30;99.90
19435;DHT22;9853;50.848;4.108;2022-08-05T03:53:04;20.50;99.90
19435;DHT22;9853;50.848;4.108;2022-08-05T03:55:12;20.30;99.90
19435;DHT22;9853;50.848;4.108;2022-08-05T03:57:17;20.20;99.90
19435;DHT22;9853;50.848;4.108;2022-08-05T03:59:50;20.40;99.90
19435;DHT22;9853;50.848;4.108;2022-08-05T04:01:49;20.40;99.90
19435;DHT22;9853;50.848;4.108;2022-08-05T04:03:50;20.50;99.90
19435;DHT22;9853;50.848;4.108;2022-08-05T04:05:52;20.30;99.90
19435;DHT22;9853;50.848;4.108;2022-08-05T04:07:53;20.20;99.90
19435;DHT22;9853;50.848;4.108;2022-08-05T04:09:55;20.40;99.90
19435;DHT22;9853;50.848;4.108;2022-08-05T04:11:55;20.30;99.90
19435;DHT22;9853;50.848;4.108;2022-08-05T04:13:56;20.30;99.90
19435;DHT22;9853;50.848;4.108;2022-08-05T04:15:58;20.40;99.90
19435;DHT22;9853;50.848;4.108;2022-08-05T04:18:01;20.10;99.90
19435;DHT22;9853;50.848;4.108;2022-08-05T04:20:03;19.90;99.90
19435;DHT22;9853;50.848;4.108;2022-08-05T04:22:04;19.80;99.90
19435;DHT22;9853;50.848;4.108;2022-08-05T04:24:06;19.80;99.90
19435;DHT22;9853;50.848;4.108;2022-08-05T04:26:06;20.00;99.90
19435;DHT22;9853;50.848;4.108;2022-08-05T04:28:07;19.90;99.90
19435;DHT22;9853;50.848;4.108;2022-08-05T04:30:09;19.90;99.90
19435;DHT22;9853;50.848;4.108;2022-08-05T04:32:10;19.80;99.90
19435;DHT22;9853;50.848;4.108;2022-08-05T04:34:10;20.00;99.90
19435;DHT22;9853;50.848;4.108;2022-08-05T04:36:11;20.60;99.90
19435;DHT22;9853;50.848;4.108;2022-08-05T04:38:13;20.60;99.90
19435;DHT22;9853;50.848;4.108;2022-08-05T04:40:14;20.50;99.90
19435;DHT22;9853;50.848;4.108;2022-08-05T04:42:16;20.30;99.90
19435;DHT22;9853;50.848;4.108;2022-08-05T04:44:17;20.60;99.90
19435;DHT22;9853;50.848;4.108;2022-08-05T04:46:17;20.40;99.90
19435;DHT22;9853;50.848;4.108;2022-08-05T04:48:18;20.40;99.90
19435;DHT22;9853;50.848;4.108;2022-08-05T04:50:19;20.40;99.90
19435;DHT22;9853;50.848;4.108;2022-08-05T04:52:19;20.20;99.90
19435;DHT22;9853;50.848;4.108;2022-08-05T04:54:21;20.10;99.90
19435;DHT22;9853;50.848;4.108;2022-08-05T04:56:21;20.10;99.90
19435;DHT22;9853;50.848;4.108;2022-08-05T04:58:22;20.10;99.90
19435;DHT22;9853;50.848;4.108;2022-08-05T05:00:23;20.40;99.90
19435;DHT22;9853;50.848;4.108;2022-08-05T05:02:24;20.50;99.90
19435;DHT22;9853;50.848;4.108;2022-08-05T05:04:25;20.40;99.90
19435;DHT22;9853;50.848;4.108;2022-08-05T05:06:26;20.00;99.90
19435;DHT22;9853;50.848;4.108;2022-08-05T05:08:26;19.60;99.90
19435;DHT22;9853;50.848;4.108;2022-08-05T05:10:28;19.50;99.90
19435;DHT22;9853;50.848;4.108;2022-08-05T05:12:29;19.70;99.90
19435;DHT22;9853;50.848;4.108;2022-08-05T05:14:30;19.90;99.90
19435;DHT22;9853;50.848;4.108;2022-08-05T05:16:31;19.90;99.90
19435;DHT22;9853;50.848;4.108;2022-08-05T05:18:32;20.10;99.90
19435;DHT22;9853;50.848;4.108;2022-08-05T05:20:32;20.20;99.90
19435;DHT22;9853;50.848;4.108;2022-08-05T05:22:34;20.30;99.90
19435;DHT22;9853;50.848;4.108;2022-08-05T05:24:35;20.30;99.90
19435;DHT22;9853;50.848;4.108;2022-08-05T05:26:36;20.50;99.90
19435;DHT22;9853;50.848;4.108;2022-08-05T05:28:36;20.40;99.90
19435;DHT22;9853;50.848;4.108;2022-08-05T05:30:38;20.40;99.90
19435;DHT22;9853;50.848;4.108;2022-08-05T05:32:39;20.50;99.90
19435;DHT22;9853;50.848;4.108;2022-08-05T05:34:39;20.60;99.90
19435;DHT22;9853;50.848;4.108;2022-08-05T05:36:40;20.70;99.90
19435;DHT22;9853;50.848;4.108;2022-08-05T05:38:41;20.40;99.90
19435;DHT22;9853;50.848;4.108;2022-08-05T05:40:42;20.50;99.90
19435;DHT22;9853;50.848;4.108;2022-08-05T05:42:43;20.40;99.90
19435;DHT22;9853;50.848;4.108;2022-08-05T05:44:45;20.20;99.90
19435;DHT22;9853;50.848;4.108;2022-08-05T05:46:46;20.40;99.90
19435;DHT22;9853;50.848;4.108;2022-08-05T05:48:46;20.50;99.90
19435;DHT22;9853;50.848;4.108;2022-08-05T05:50:50;20.30;99.90
19435;DHT22;9853;50.848;4.108;2022-08-05T05:52:51;20.40;99.90
19435;DHT22;9853;50.848;4.108;2022-08-05T05:54:57;20.50;99.90
19435;DHT22;9853;50.848;4.108;2022-08-05T05:56:58;20.40;99.90
19435;DHT22;9853;50.848;4.108;2022-08-05T05:59:00;20.30;99.90
19435;DHT22;9853;50.848;4.108;2022-08-05T06:01:01;20.30;99.90
19435;DHT22;9853;50.848;4.108;2022-08-05T06:03:02;20.50;99.90
19435;DHT22;9853;50.848;4.108;2022-08-05T06:05:05;20.60;99.90
19435;DHT22;9853;50.848;4.108;2022-08-05T06:07:06;20.40;99.90
19435;DHT22;9853;50.848;4.108;2022-08-05T06:09:09;20.40;99.90
19435;DHT22;9853;50.848;4.108;2022-08-05T06:11:09;20.50;99.90
19435;DHT22;9853;50.848;4.108;2022-08-05T06:13:10;20.50;99.90
19435;DHT22;9853;50.848;4.108;2022-08-05T06:15:11;20.60;99.90
19435;DHT22;9853;50.848;4.108;2022-08-05T06:17:13;20.60;99.90
19435;DHT22;9853;50.848;4.108;2022-08-05T06:19:13;20.70;99.90
19435;DHT22;9853;50.848;4.108;2022-08-05T06:21:14;20.70;99.90
19435;DHT22;9853;50.848;4.108;2022-08-05T06:23:17;20.60;99.90
19435;DHT22;9853;50.848;4.108;2022-08-05T06:25:17;20.80;99.90
19435;DHT22;9853;50.848;4.108;2022-08-05T06:27:18;20.80;99.90
19435;DHT22;9853;50.848;4.108;2022-08-05T06:29:20;20.80;99.90
19435;DHT22;9853;50.848;4.108;2022-08-05T06:31:20;20.70;99.90
19435;DHT22;9853;50.848;4.108;2022-08-05T06:33:22;20.60;99.90
19435;DHT22;9853;50.848;4.108;2022-08-05T06:35:28;20.60;99.90
19435;DHT22;9853;50.848;4.108;2022-08-05T06:37:38;20.80;99.90
19435;DHT22;9853;50.848;4.108;2022-08-05T06:39:39;20.90;99.90
19435;DHT22;9853;50.848;4.108;2022-08-05T06:41:43;21.00;99.90
19435;DHT22;9853;50.848;4.108;2022-08-05T06:43:47;20.90;99.90
19435;DHT22;9853;50.848;4.108;2022-08-05T06:45:49;21.00;99.90
19435;DHT22;9853;50.848;4.108;2022-08-05T06:47:50;21.20;99.90
19435;DHT22;9853;50.848;4.108;2022-08-05T06:49:50;21.20;99.90
19435;DHT22;9853;50.848;4.108;2022-08-05T06:51:52;21.20;99.90
19435;DHT22;9853;50.848;4.108;2022-08-05T06:53:53;21.20;99.90
19435;DHT22;9853;50.848;4.108;2022-08-05T06:56:01;21.30;99.90
19435;DHT22;9853;50.848;4.108;2022-08-05T06:58:05;21.30;99.90
19435;DHT22;9853;50.848;4.108;2022-08-05T07:00:06;21.20;99.90
19435;DHT22;9853;50.848;4.108;2022-08-05T07:02:09;21.40;99.90
19435;DHT22;9853;50.848;4.108;2022-08-05T07:04:09;21.50;99.90
19435;DHT22;9853;50.848;4.108;2022-08-05T07:06:10;21.40;99.90
19435;DHT22;9853;50.848;4.108;2022-08-05T07:08:11;21.20;99.90
19435;DHT22;9853;50.848;4.108;2022-08-05T07:10:12;21.00;99.90
19435;DHT22;9853;50.848;4.108;2022-08-05T07:12:12;21.10;99.90
19435;DHT22;9853;50.848;4.108;2022-08-05T07:14:33;21.10;99.90
19435;DHT22;9853;50.848;4.108;2022-08-05T07:16:52;21.20;99.90
19435;DHT22;9853;50.848;4.108;2022-08-05T07:19:02;21.40;99.90
19435;DHT22;9853;50.848;4.108;2022-08-05T07:21:04;21.90;99.90
19435;DHT22;9853;50.848;4.108;2022-08-05T07:23:05;22.60;99.90
19435;DHT22;9853;50.848;4.108;2022-08-05T07:25:06;23.50;99.90
19435;DHT22;9853;50.848;4.108;2022-08-05T07:27:07;24.10;99.90
19435;DHT22;9853;50.848;4.108;2022-08-05T07:29:12;24.60;99.90
19435;DHT22;9853;50.848;4.108;2022-08-05T07:31:13;24.90;99.90
19435;DHT22;9853;50.848;4.108;2022-08-05T07:33:13;25.20;99.90
19435;DHT22;9853;50.848;4.108;2022-08-05T07:35:14;25.40;99.90
19435;DHT22;9853;50.848;4.108;2022-08-05T07:37:15;25.60;99.90
19435;DHT22;9853;50.848;4.108;2022-08-05T07:39:15;25.90;99.90
19435;DHT22;9853;50.848;4.108;2022-08-05T07:41:18;26.10;99.90
19435;DHT22;9853;50.848;4.108;2022-08-05T07:43:19;26.20;99.90
19435;DHT22;9853;50.848;4.108;2022-08-05T07:45:19;26.30;99.90
19435;DHT22;9853;50.848;4.108;2022-08-05T07:47:21;26.40;99.90
19435;DHT22;9853;50.848;4.108;2022-08-05T07:49:21;26.20;99.90
19435;DHT22;9853;50.848;4.108;2022-08-05T07:51:22;26.70;99.90
19435;DHT22;9853;50.848;4.108;2022-08-05T07:53:30;26.90;99.90
19435;DHT22;9853;50.848;4.108;2022-08-05T07:55:30;26.70;99.90
19435;DHT22;9853;50.848;4.108;2022-08-05T07:57:31;26.60;99.90
19435;DHT22;9853;50.848;4.108;2022-08-05T07:59:32;26.90;99.90
19435;DHT22;9853;50.848;4.108;2022-08-05T08:01:32;27.40;99.90
19435;DHT22;9853;50.848;4.108;2022-08-05T08:03:33;27.40;99.90
19435;DHT22;9853;50.848;4.108;2022-08-05T08:05:34;27.00;99.90
19435;DHT22;9853;50.848;4.108;2022-08-05T08:07:34;26.70;99.90
19435;DHT22;9853;50.848;4.108;2022-08-05T08:09:35;25.70;99.90
19435;DHT22;9853;50.848;4.108;2022-08-05T08:11:56;25.50;99.90
19435;DHT22;9853;50.848;4.108;2022-08-05T08:13:56;25.30;99.90
19435;DHT22;9853;50.848;4.108;2022-08-05T08:15:57;25.40;99.90
19435;DHT22;9853;50.848;4.108;2022-08-05T08:17:58;26.20;99.90
19435;DHT22;9853;50.848;4.108;2022-08-05T08:19:59;26.90;99.90
19435;DHT22;9853;50.848;4.108;2022-08-05T08:21:59;27.50;99.90
19435;DHT22;9853;50.848;4.108;2022-08-05T08:24:00;27.80;99.90
19435;DHT22;9853;50.848;4.108;2022-08-05T08:26:01;27.50;99.90
19435;DHT22;9853;50.848;4.108;2022-08-05T08:28:02;27.00;99.90
19435;DHT22;9853;50.848;4.108;2022-08-05T08:30:03;26.10;99.90
19435;DHT22;9853;50.848;4.108;2022-08-05T08:32:04;25.40;99.90
19435;DHT22;9853;50.848;4.108;2022-08-05T08:34:04;25.10;99.90
19435;DHT22;9853;50.848;4.108;2022-08-05T08:36:07;24.80;99.90
19435;DHT22;9853;50.848;4.108;2022-08-05T08:38:08;24.20;99.90
19435;DHT22;9853;50.848;4.108;2022-08-05T08:40:09;24.00;99.90
19435;DHT22;9853;50.848;4.108;2022-08-05T08:42:11;23.70;99.90
19435;DHT22;9853;50.848;4.108;2022-08-05T08:44:13;23.60;99.90
19435;DHT22;9853;50.848;4.108;2022-08-05T08:46:16;24.10;99.90
19435;DHT22;9853;50.848;4.108;2022-08-05T08:48:18;24.60;99.90
19435;DHT22;9853;50.848;4.108;2022-08-05T08:50:22;24.60;99.90
19435;DHT22;9853;50.848;4.108;2022-08-05T08:52:26;24.70;99.90
19435;DHT22;9853;50.848;4.108;2022-08-05T08:54:29;24.50;99.90
19435;DHT22;9853;50.848;4.108;2022-08-05T08:56:38;24.30;99.90
19435;DHT22;9853;50.848;4.108;2022-08-05T08:58:40;24.20;99.90
19435;DHT22;9853;50.848;4.108;2022-08-05T09:00:58;25.40;99.90
19435;DHT22;9853;50.848;4.108;2022-08-05T09:03:09;26.30;99.90
19435;DHT22;9853;50.848;4.108;2022-08-05T09:05:14;26.60;99.90
19435;DHT22;9853;50.848;4.108;2022-08-05T09:07:39;26.70;99.90
19435;DHT22;9853;50.848;4.108;2022-08-05T09:10:27;27.10;99.90
19435;DHT22;9853;50.848;4.108;2022-08-05T09:12:37;26.80;99.90
19435;DHT22;9853;50.848;4.108;2022-08-05T09:15:00;27.00;99.90
19435;DHT22;9853;50.848;4.108;2022-08-05T09:17:07;27.50;99.90
19435;DHT22;9853;50.848;4.108;2022-08-05T09:19:17;27.70;99.90
19435;DHT22;9853;50.848;4.108;2022-08-05T09:21:18;26.80;99.90
19435;DHT22;9853;50.848;4.108;2022-08-05T09:23:28;26.60;99.90
19435;DHT22;9853;50.848;4.108;2022-08-05T09:25:49;26.70;99.90
19435;DHT22;9853;50.848;4.108;2022-08-05T09:28:32;27.30;99.90
19435;DHT22;9853;50.848;4.108;2022-08-05T09:32:10;28.60;99.90
19435;DHT22;9853;50.848;4.108;2022-08-05T09:35:29;29.10;99.90
19435;DHT22;9853;50.848;4.108;2022-08-05T09:38:12;28.00;99.90
19435;DHT22;9853;50.848;4.108;2022-08-05T09:44:05;26.80;99.90
19435;DHT22;9853;50.848;4.108;2022-08-05T09:46:42;27.10;99.90
19435;DHT22;9853;50.848;4.108;2022-08-05T09:48:48;26.90;99.90
19435;DHT22;9853;50.848;4.108;2022-08-05T09:50:54;26.40;99.90
19435;DHT22;9853;50.848;4.108;2022-08-05T09:52:57;26.00;99.90
19435;DHT22;9853;50.848;4.108;2022-08-05T09:55:21;25.70;99.90
19435;DHT22;9853;50.848;4.108;2022-08-05T09:58:08;25.60;99.90
19435;DHT22;9853;50.848;4.108;2022-08-05T10:00:38;26.20;99.90
19435;DHT22;9853;50.848;4.108;2022-08-05T10:02:43;27.40;99.90
19435;DHT22;9853;50.848;4.108;2022-08-05T10:06:18;27.90;99.90
19435;DHT22;9853;50.848;4.108;2022-08-05T10:08:51;27.60;99.90
19435;DHT22;9853;50.848;4.108;2022-08-05T10:11:18;27.40;99.90
19435;DHT22;9853;50.848;4.108;2022-08-05T10:17:38;26.40;99.90
19435;DHT22;9853;50.848;4.108;2022-08-05T10:19:39;26.30;99.90
19435;DHT22;9853;50.848;4.108;2022-08-05T10:21:56;26.30;99.90
19435;DHT22;9853;50.848;4.108;2022-08-05T10:23:58;27.10;99.90
19435;DHT22;9853;50.848;4.108;2022-08-05T10:29:49;27.20;99.90
19435;DHT22;9853;50.848;4.108;2022-08-05T10:32:14;28.00;99.90
19435;DHT22;9853;50.848;4.108;2022-08-05T10:34:21;27.50;99.90
19435;DHT22;9853;50.848;4.108;2022-08-05T10:39:04;26.10;99.90
19435;DHT22;9853;50.848;4.108;2022-08-05T10:41:59;26.20;99.90
19435;DHT22;9853;50.848;4.108;2022-08-05T10:44:34;25.80;99.90
19435;DHT22;9853;50.848;4.108;2022-08-05T10:47:12;25.70;99.90
19435;DHT22;9853;50.848;4.108;2022-08-05T10:53:02;25.20;99.90
19435;DHT22;9853;50.848;4.108;2022-08-05T11:08:06;25.10;99.90
19435;DHT22;9853;50.848;4.108;2022-08-05T11:11:35;24.80;99.90
19435;DHT22;9853;50.848;4.108;2022-08-05T11:14:44;24.50;99.90
19435;DHT22;9853;50.848;4.108;2022-08-05T11:17:28;24.20;99.90
19435;DHT22;9853;50.848;4.108;2022-08-05T11:24:06;24.90;99.90
19435;DHT22;9853;50.848;4.108;2022-08-05T11:26:41;25.10;99.90
19435;DHT22;9853;50.848;4.108;2022-08-05T11:28:50;25.60;99.90
19435;DHT22;9853;50.848;4.108;2022-08-05T11:33:28;25.90;99.90
19435;DHT22;9853;50.848;4.108;2022-08-05T11:36:00;25.40;99.90
19435;DHT22;9853;50.848;4.108;2022-08-05T11:38:01;24.90;99.90
19435;DHT22;9853;50.848;4.108;2022-08-05T11:40:02;24.50;99.90
19435;DHT22;9853;50.848;4.108;2022-08-05T11:42:05;24.40;99.90
19435;DHT22;9853;50.848;4.108;2022-08-05T11:44:12;24.70;99.90
19435;DHT22;9853;50.848;4.108;2022-08-05T11:46:15;24.70;99.90
19435;DHT22;9853;50.848;4.108;2022-08-05T11:48:16;24.80;99.90
19435;DHT22;9853;50.848;4.108;2022-08-05T11:50:17;25.00;99.90
19435;DHT22;9853;50.848;4.108;2022-08-05T11:52:24;25.40;99.90
19435;DHT22;9853;50.848;4.108;2022-08-05T11:54:30;25.40;99.90
19435;DHT22;9853;50.848;4.108;2022-08-05T11:56:48;25.10;99.90
19435;DHT22;9853;50.848;4.108;2022-08-05T11:58:52;24.50;99.90
19435;DHT22;9853;50.848;4.108;2022-08-05T12:01:03;24.10;99.90
19435;DHT22;9853;50.848;4.108;2022-08-05T12:03:18;23.70;99.90
19435;DHT22;9853;50.848;4.108;2022-08-05T12:05:26;23.60;99.90
19435;DHT22;9853;50.848;4.108;2022-08-05T12:07:34;23.60;99.90
19435;DHT22;9853;50.848;4.108;2022-08-05T12:09:38;23.60;99.90
19435;DHT22;9853;50.848;4.108;2022-08-05T12:11:46;23.90;99.90
19435;DHT22;9853;50.848;4.108;2022-08-05T12:14:03;24.10;99.90
19435;DHT22;9853;50.848;4.108;2022-08-05T12:16:08;24.20;99.90
19435;DHT22;9853;50.848;4.108;2022-08-05T12:18:09;24.20;99.90
19435;DHT22;9853;50.848;4.108;2022-08-05T12:20:10;24.30;99.90
19435;DHT22;9853;50.848;4.108;2022-08-05T12:22:11;24.20;99.90
19435;DHT22;9853;50.848;4.108;2022-08-05T12:26:15;24.20;99.90
19435;DHT22;9853;50.848;4.108;2022-08-05T12:28:50;24.50;99.90
19435;DHT22;9853;50.848;4.108;2022-08-05T12:30:51;24.60;99.90
19435;DHT22;9853;50.848;4.108;2022-08-05T12:33:05;24.70;99.90
19435;DHT22;9853;50.848;4.108;2022-08-05T12:35:06;24.70;99.90
19435;DHT22;9853;50.848;4.108;2022-08-05T12:37:25;24.70;99.90
19435;DHT22;9853;50.848;4.108;2022-08-05T12:39:27;24.90;99.90
19435;DHT22;9853;50.848;4.108;2022-08-05T12:41:32;24.90;99.90
19435;DHT22;9853;50.848;4.108;2022-08-05T12:43:33;24.30;99.90
19435;DHT22;9853;50.848;4.108;2022-08-05T12:45:35;24.20;99.90
19435;DHT22;9853;50.848;4.108;2022-08-05T12:47:36;24.30;99.90
19435;DHT22;9853;50.848;4.108;2022-08-05T12:49:46;24.90;99.90
19435;DHT22;9853;50.848;4.108;2022-08-05T12:51:56;25.30;99.90
19435;DHT22;9853;50.848;4.108;2022-08-05T12:54:03;25.50;99.90
19435;DHT22;9853;50.848;4.108;2022-08-05T12:56:15;25.50;99.90
19435;DHT22;9853;50.848;4.108;2022-08-05T12:58:22;24.90;99.90
19435;DHT22;9853;50.848;4.108;2022-08-05T13:00:43;24.50;99.90
19435;DHT22;9853;50.848;4.108;2022-08-05T13:02:45;24.50;99.90
19435;DHT22;9853;50.848;4.108;2022-08-05T13:05:04;24.00;99.90
19435;DHT22;9853;50.848;4.108;2022-08-05T13:07:07;24.00;99.90
19435;DHT22;9853;50.848;4.108;2022-08-05T13:09:12;24.10;99.90
19435;DHT22;9853;50.848;4.108;2022-08-05T13:11:16;24.40;99.90
19435;DHT22;9853;50.848;4.108;2022-08-05T13:13:20;24.60;99.90
19435;DHT22;9853;50.848;4.108;2022-08-05T13:15:21;24.80;99.90
19435;DHT22;9853;50.848;4.108;2022-08-05T13:17:26;24.90;99.90
19435;DHT22;9853;50.848;4.108;2022-08-05T13:19:27;25.10;99.90
19435;DHT22;9853;50.848;4.108;2022-08-05T13:21:28;25.30;99.90
19435;DHT22;9853;50.848;4.108;2022-08-05T13:23:29;25.40;99.90
19435;DHT22;9853;50.848;4.108;2022-08-05T13:25:29;25.80;99.90
19435;DHT22;9853;50.848;4.108;2022-08-05T13:29:36;25.90;99.90
19435;DHT22;9853;50.848;4.108;2022-08-05T13:31:36;25.90;99.90
19435;DHT22;9853;50.848;4.108;2022-08-05T13:33:37;25.70;99.90
19435;DHT22;9853;50.848;4.108;2022-08-05T13:35:38;25.50;99.90
19435;DHT22;9853;50.848;4.108;2022-08-05T13:37:39;25.30;99.90
19435;DHT22;9853;50.848;4.108;2022-08-05T13:39:40;25.40;99.90
19435;DHT22;9853;50.848;4.108;2022-08-05T13:41:41;25.60;99.90
19435;DHT22;9853;50.848;4.108;2022-08-05T13:43:41;25.50;99.90
19435;DHT22;9853;50.848;4.108;2022-08-05T13:45:45;25.10;99.90
19435;DHT22;9853;50.848;4.108;2022-08-05T13:47:46;25.10;99.90
19435;DHT22;9853;50.848;4.108;2022-08-05T13:49:47;25.00;99.90
19435;DHT22;9853;50.848;4.108;2022-08-05T13:51:47;25.10;99.90
19435;DHT22;9853;50.848;4.108;2022-08-05T13:53:48;25.20;99.90
19435;DHT22;9853;50.848;4.108;2022-08-05T13:55:49;25.20;99.90
19435;DHT22;9853;50.848;4.108;2022-08-05T13:57:49;25.00;99.90
19435;DHT22;9853;50.848;4.108;2022-08-05T13:59:50;25.40;99.90
19435;DHT22;9853;50.848;4.108;2022-08-05T14:01:56;25.70;99.90
19435;DHT22;9853;50.848;4.108;2022-08-05T14:03:57;25.70;99.90
19435;DHT22;9853;50.848;4.108;2022-08-05T14:06:16;25.60;99.90
19435;DHT22;9853;50.848;4.108;2022-08-05T14:08:17;25.90;99.90
19435;DHT22;9853;50.848;4.108;2022-08-05T14:10:19;26.20;99.90
19435;DHT22;9853;50.848;4.108;2022-08-05T14:12:22;25.90;99.90
19435;DHT22;9853;50.848;4.108;2022-08-05T14:14:23;26.10;99.90
19435;DHT22;9853;50.848;4.108;2022-08-05T14:16:23;26.10;99.90
19435;DHT22;9853;50.848;4.108;2022-08-05T14:18:24;25.70;99.90
19435;DHT22;9853;50.848;4.108;2022-08-05T14:20:29;25.80;99.90
19435;DHT22;9853;50.848;4.108;2022-08-05T14:22:31;25.90;99.90
19435;DHT22;9853;50.848;4.108;2022-08-05T14:24:32;26.00;99.90